Time;durP1;ratioP1;P1;durP2;ratioP2;P2;SDS_P1;SDS_P2;PMS_P1;PMS_P2;Temp;Humidity;BMP_temperature;BMP_pressure;BME280_temperature;BME280_humidity;BME280_pressure;Samples;Min_cycle;Max_cycle;Signal;HPM_P1;HPM_P2
2023/03/27 00:00:19;;;;;;;0.45;0.40;;;;;;;-2.25;98.86;99210.38;10412422;28;20038;-82
2023/03/27 00:05:21;;;;;;;0.75;0.40;;;;;;;-2.27;99.09;99197.13;10430606;28;20049;-82
2023/03/27 00:10:23;;;;;;;0.40;0.40;;;;;;;-2.32;99.32;99188.16;10442517;28;20044;-81
2023/03/27 00:15:25;;;;;;;0.35;0.35;;;;;;;-2.31;99.36;99195.16;10445694;28;20053;-82
2023/03/27 00:20:28;;;;;;;0.30;0.30;;;;;;;-2.30;99.83;99199.47;10425414;28;20042;-82
2023/03/27 00:25:32;;;;;;;0.20;0.17;;;;;;;-2.30;99.99;99197.59;10432090;28;20041;-80
2023/03/27 00:30:34;;;;;;;1.05;0.40;;;;;;;-2.36;99.55;99193.19;10411768;28;20493;-81
2023/03/27 00:35:37;;;;;;;0.50;0.45;;;;;;;-2.39;99.84;99190.97;10429810;28;20044;-82
2023/03/27 00:40:39;;;;;;;0.68;0.40;;;;;;;-2.33;99.79;99181.16;10450477;28;20041;-81
2023/03/27 00:45:42;;;;;;;0.25;0.25;;;;;;;-2.27;100.00;99188.25;10419065;28;20688;-86
2023/03/27 00:50:45;;;;;;;0.85;0.30;;;;;;;-2.33;99.48;99187.34;10445032;28;20053;-81
2023/03/27 00:55:50;;;;;;;0.38;0.38;;;;;;;-2.30;99.43;99208.34;10424325;28;20496;-81
2023/03/27 01:00:54;;;;;;;0.47;0.47;;;;;;;-2.30;99.16;99194.94;10422527;28;20042;-82
2023/03/27 01:05:59;;;;;;;0.40;0.40;;;;;;;-2.35;99.51;99191.31;10423583;28;20136;-80
2023/03/27 01:11:04;;;;;;;0.70;0.40;;;;;;;-2.36;98.98;99193.19;10395982;28;20045;-81
2023/03/27 01:17:00;;;;;;;0.47;0.20;;;;;;;-2.34;98.71;99204.50;10424869;28;20029;-81
2023/03/27 01:22:18;;;;;;;0.28;0.10;;;;;;;-2.31;98.41;99184.41;10425855;28;20414;-81
2023/03/27 01:27:40;;;;;;;0.22;0.20;;;;;;;-2.34;98.79;99188.38;10422891;28;20048;-82
2023/03/27 01:33:16;;;;;;;0.50;0.50;;;;;;;-2.35;98.56;99199.38;10427601;28;20052;-81
2023/03/27 01:38:39;;;;;;;0.10;0.10;;;;;;;-2.39;98.66;99203.56;10428969;28;20038;-81
2023/03/27 01:44:04;;;;;;;0.10;0.10;;;;;;;-2.41;98.88;99193.06;10425543;28;20048;-81
2023/03/27 01:49:38;;;;;;;0.28;0.28;;;;;;;-2.32;98.74;99199.72;10383288;28;20037;-82
2023/03/27 01:54:43;;;;;;;2.97;0.40;;;;;;;-2.40;98.57;99193.88;10428048;28;20045;-81
2023/03/27 01:59:48;;;;;;;0.70;0.40;;;;;;;-2.39;98.90;99201.72;10439719;28;20138;-81
2023/03/27 02:05:00;;;;;;;0.73;0.43;;;;;;;-2.41;98.96;99203.81;10446526;28;20055;-81
2023/03/27 02:10:07;;;;;;;0.30;0.30;;;;;;;-2.41;98.73;99197.63;10468824;28;20518;-81
2023/03/27 02:15:15;;;;;;;0.17;0.17;;;;;;;-2.40;98.98;99194.69;10443182;28;20045;-82
2023/03/27 02:20:19;;;;;;;0.90;0.30;;;;;;;-2.33;98.91;99197.25;10439154;28;20046;-82
2023/03/27 02:25:25;;;;;;;0.50;0.45;;;;;;;-2.38;99.17;99183.72;10419236;28;20056;-81
2023/03/27 02:30:56;;;;;;;0.10;0.10;;;;;;;-2.38;99.51;99210.59;10414752;28;20057;-81
2023/03/27 02:36:27;;;;;;;0.38;0.38;;;;;;;-2.41;99.62;99187.69;10424920;28;20052;-82
2023/03/27 02:42:15;;;;;;;0.45;0.40;;;;;;;-2.41;99.58;99201.13;10431822;28;20033;-81
2023/03/27 02:47:53;;;;;;;0.20;0.20;;;;;;;-2.41;99.23;99201.13;10390431;28;20054;-80
2023/03/27 02:52:58;;;;;;;0.47;0.40;;;;;;;-2.40;98.94;99188.50;10395417;28;20505;-81
2023/03/27 02:58:06;;;;;;;0.43;0.43;;;;;;;-2.40;98.85;99181.28;10394868;28;20037;-81
2023/03/27 03:03:26;;;;;;;0.30;0.30;;;;;;;-2.36;98.65;99173.56;10446645;28;20051;-81
2023/03/27 03:08:36;;;;;;;0.47;0.47;;;;;;;-2.37;98.10;99188.03;10390177;28;21047;-80
2023/03/27 03:13:40;;;;;;;0.35;0.35;;;;;;;-2.42;98.44;99178.00;10422946;28;20037;-82
2023/03/27 03:18:42;;;;;;;1.30;0.52;;;;;;;-2.40;97.73;99180.44;10394533;28;20048;-82
2023/03/27 03:23:45;;;;;;;0.40;0.40;;;;;;;-2.35;97.44;99189.44;10416226;28;20045;-81
2023/03/27 03:28:53;;;;;;;0.47;0.40;;;;;;;-2.37;97.20;99180.81;10431764;28;20049;-82
2023/03/27 03:34:15;;;;;;;0.30;0.30;;;;;;;-2.36;96.73;99184.31;10436812;28;20046;-81
2023/03/27 03:39:17;;;;;;;0.60;0.60;;;;;;;-2.39;96.74;99185.59;10431976;28;20033;-81
2023/03/27 03:44:23;;;;;;;0.30;0.13;;;;;;;-2.39;96.61;99168.66;10423200;28;20044;-81
2023/03/27 03:49:25;;;;;;;0.32;0.32;;;;;;;-2.34;96.59;99179.50;10419465;28;20050;-80
2023/03/27 03:54:28;;;;;;;0.82;0.50;;;;;;;-2.40;95.78;99192.00;10435568;28;20033;-81
2023/03/27 03:59:30;;;;;;;0.40;0.40;;;;;;;-2.38;95.04;99189.91;10438157;28;20040;-81
2023/03/27 04:04:54;;;;;;;0.30;0.17;;;;;;;-2.38;95.45;99184.53;10444538;28;20049;-82
2023/03/27 04:09:58;;;;;;;0.60;0.60;;;;;;;-2.39;95.35;99188.28;10451719;28;20041;-80
2023/03/27 04:15:03;;;;;;;0.28;0.13;;;;;;;-2.36;94.91;99182.44;10468786;28;20041;-81
2023/03/27 04:20:34;;;;;;;0.30;0.30;;;;;;;-2.30;94.99;99169.94;10439601;28;20485;-81
2023/03/27 04:25:38;;;;;;;0.77;0.40;;;;;;;-2.26;94.52;99187.22;10414654;28;20037;-82
2023/03/27 04:30:43;;;;;;;0.17;0.17;;;;;;;-2.32;93.96;99180.91;10409437;28;20100;-81
2023/03/27 04:36:05;;;;;;;0.98;0.50;;;;;;;-2.25;93.74;99176.25;10417593;28;20037;-82
2023/03/27 04:41:16;;;;;;;0.50;0.50;;;;;;;-2.26;94.05;99188.03;10411293;28;20049;-81
2023/03/27 04:46:19;;;;;;;1.05;0.60;;;;;;;-2.28;93.47;99186.63;10433816;28;20414;-81
2023/03/27 04:51:26;;;;;;;1.15;0.70;;;;;;;-2.26;94.21;99188.03;10433145;28;20045;-84
2023/03/27 04:56:29;;;;;;;0.40;0.40;;;;;;;-2.23;93.11;99176.84;10409481;28;20124;-80
2023/03/27 05:01:32;;;;;;;0.63;0.55;;;;;;;-2.25;93.38;99181.63;10425558;28;20061;-79
2023/03/27 05:06:39;;;;;;;1.13;0.70;;;;;;;-2.20;93.48;99186.28;10429044;28;20049;-80
2023/03/27 05:11:48;;;;;;;1.17;0.65;;;;;;;-2.19;93.10;99188.75;10413302;28;20037;-79
2023/03/27 05:16:51;;;;;;;1.08;0.70;;;;;;;-2.17;93.21;99192.00;10433868;28;20053;-80
2023/03/27 05:21:55;;;;;;;0.90;0.68;;;;;;;-2.20;93.33;99197.84;10449016;28;20041;-80
2023/03/27 05:26:58;;;;;;;0.50;0.50;;;;;;;-2.19;92.76;99201.38;10433200;28;20078;-80
2023/03/27 05:32:01;;;;;;;1.88;1.50;;;;;;;-2.16;92.78;99209.78;10448400;28;20500;-80
2023/03/27 05:37:06;;;;;;;2.60;0.60;;;;;;;-1.98;92.61;99194.56;10449061;28;20049;-80
2023/03/27 05:42:20;;;;;;;0.57;0.57;;;;;;;-1.94;92.15;99195.72;10392665;28;20052;-80
2023/03/27 05:47:23;;;;;;;2.25;0.70;;;;;;;-1.86;92.31;99227.66;10391176;28;20045;-80
2023/03/27 05:52:28;;;;;;;0.68;0.52;;;;;;;-1.92;91.58;99209.75;10406873;28;20104;-80
2023/03/27 05:57:30;;;;;;;1.48;0.40;;;;;;;-1.87;91.03;99226.84;10403291;28;20042;-81
2023/03/27 06:02:37;;;;;;;0.50;0.50;;;;;;;-1.78;91.12;99224.59;10391446;28;20041;-79
2023/03/27 06:07:42;;;;;;;0.98;0.43;;;;;;;-1.76;90.17;99222.47;10406551;28;20053;-81
2023/03/27 06:12:45;;;;;;;0.98;0.60;;;;;;;-1.78;89.91;99224.59;10392305;28;20058;-79
2023/03/27 06:17:58;;;;;;;0.70;0.68;;;;;;;-1.82;89.90;99236.88;10391021;28;20054;-81
2023/03/27 06:23:02;;;;;;;2.05;0.70;;;;;;;-1.78;90.05;99232.66;10405718;28;20058;-80
2023/03/27 06:28:09;;;;;;;0.50;0.50;;;;;;;-1.76;90.35;99249.38;10406663;28;20145;-80
2023/03/27 06:33:18;;;;;;;1.80;0.70;;;;;;;-1.77;89.60;99263.88;10405303;28;20622;-81
2023/03/27 06:38:20;;;;;;;1.00;0.63;;;;;;;-1.75;89.67;99242.13;10389627;28;20049;-80
2023/03/27 06:43:23;;;;;;;1.20;0.50;;;;;;;-1.71;89.00;99243.31;10405373;28;20490;-80
2023/03/27 06:48:36;;;;;;;0.43;0.40;;;;;;;-1.80;89.02;99242.84;10406403;28;20046;-80
2023/03/27 06:53:40;;;;;;;1.02;0.50;;;;;;;-1.79;88.86;99252.53;10372662;28;20045;-80
2023/03/27 06:58:46;;;;;;;1.77;0.60;;;;;;;-1.83;88.95;99246.00;10443412;28;20405;-80
2023/03/27 07:03:49;;;;;;;0.40;0.40;;;;;;;-1.86;88.68;99270.66;10427969;28;20401;-80
2023/03/27 07:09:10;;;;;;;1.38;0.50;;;;;;;-1.82;88.57;99271.84;10446415;28;20543;-80
2023/03/27 07:14:12;;;;;;;2.65;0.73;;;;;;;-1.76;89.00;99259.31;10445579;28;20493;-80
2023/03/27 07:19:14;;;;;;;1.25;0.68;;;;;;;-1.75;88.51;99264.44;10444936;28;20057;-80
2023/03/27 07:24:20;;;;;;;4.65;1.00;;;;;;;-1.75;88.07;99269.00;10403259;28;20046;-81
2023/03/27 07:29:22;;;;;;;0.82;0.80;;;;;;;-1.72;87.60;99266.69;10403291;28;20053;-80
2023/03/27 07:34:28;;;;;;;1.23;0.70;;;;;;;-1.69;87.30;99284.22;10403795;28;20050;-80
2023/03/27 07:39:56;;;;;;;0.60;0.60;;;;;;;-1.59;87.78;99271.81;10403933;28;20041;-79
2023/03/27 07:45:01;;;;;;;0.70;0.70;;;;;;;-1.60;87.40;99283.63;10403606;28;20057;-80
2023/03/27 07:50:05;;;;;;;1.80;0.73;;;;;;;-1.59;87.31;99287.94;10402605;28;20049;-81
2023/03/27 07:55:10;;;;;;;0.70;0.70;;;;;;;-1.54;86.95;99288.06;10403936;28;20402;-81
2023/03/27 08:00:18;;;;;;;0.85;0.70;;;;;;;-1.44;86.37;99297.41;10402550;28;20049;-80
2023/03/27 08:05:36;;;;;;;0.50;0.50;;;;;;;-1.43;86.11;99297.16;10417325;28;20412;-80
2023/03/27 08:10:46;;;;;;;1.02;0.93;;;;;;;-1.32;86.23;99304.41;10402857;28;20042;-80
2023/03/27 08:15:51;;;;;;;1.35;0.80;;;;;;;-1.31;85.61;99314.13;10425227;28;20049;-80
2023/03/27 08:21:02;;;;;;;0.88;0.77;;;;;;;-1.27;86.48;99295.63;10424206;28;20041;-81
2023/03/27 08:26:09;;;;;;;0.50;0.47;;;;;;;-1.24;86.77;99306.72;10439168;28;20056;-81
2023/03/27 08:31:21;;;;;;;0.90;0.80;;;;;;;-1.24;86.31;99313.97;10413254;28;20054;-81
2023/03/27 08:36:23;;;;;;;2.50;0.70;;;;;;;-1.15;86.03;99301.81;10397670;28;20050;-83
2023/03/27 08:41:32;;;;;;;0.60;0.60;;;;;;;-1.16;85.37;99308.25;10427726;28;20049;-82
2023/03/27 08:46:58;;;;;;;0.65;0.60;;;;;;;-1.16;86.00;99304.75;10435623;28;20053;-83
2023/03/27 08:52:14;;;;;;;2.13;0.60;;;;;;;-1.20;85.78;99308.97;10440568;28;20053;-81
2023/03/27 08:57:20;;;;;;;0.52;0.50;;;;;;;-1.29;85.74;99321.97;10420480;28;20040;-80
2023/03/27 09:02:52;;;;;;;1.17;0.80;;;;;;;-1.34;86.10;99322.69;10440562;28;20045;-81
2023/03/27 09:08:25;;;;;;;0.65;0.60;;;;;;;-1.39;86.14;99336.03;10418187;28;20040;-80
2023/03/27 09:13:41;;;;;;;0.77;0.60;;;;;;;-1.40;86.21;99323.59;10450698;28;20505;-81
2023/03/27 09:18:55;;;;;;;0.95;0.82;;;;;;;-1.39;86.40;99351.31;10451794;28;20481;-81
2023/03/27 09:24:06;;;;;;;0.98;0.90;;;;;;;-1.45;86.60;99338.81;10441327;28;20045;-81
2023/03/27 09:29:33;;;;;;;0.80;0.80;;;;;;;-1.45;86.15;99369.22;10411113;28;20044;-81
2023/03/27 09:35:15;;;;;;;1.23;0.77;;;;;;;-1.43;86.13;99355.53;10415008;28;20041;-79
2023/03/27 09:40:22;;;;;;;0.88;0.80;;;;;;;-1.40;85.76;99342.44;10401429;28;20046;-80
2023/03/27 09:45:31;;;;;;;1.00;0.90;;;;;;;-1.20;85.77;99368.19;10402036;28;20053;-79
2023/03/27 09:50:44;;;;;;;0.65;0.63;;;;;;;-1.27;84.81;99360.22;10401462;28;20049;-80
2023/03/27 09:56:02;;;;;;;1.30;0.82;;;;;;;-1.29;84.78;99365.00;10413684;28;20073;-80
2023/03/27 10:01:37;;;;;;;1.73;1.20;;;;;;;-1.27;85.49;99360.22;10399355;28;20533;-80
2023/03/27 10:07:07;;;;;;;1.70;0.68;;;;;;;-1.29;85.24;99387.34;10402223;28;20433;-80
2023/03/27 10:18:07;;;;;;;0.60;0.60;;;;;;;-1.30;85.03;99363.38;10409605;28;20049;-80
2023/03/27 10:23:26;;;;;;;0.83;0.80;;;;;;;-1.16;84.63;99361.25;10430544;28;20417;-80
2023/03/27 10:28:35;;;;;;;1.17;0.95;;;;;;;-1.15;84.67;99387.13;10432958;28;20046;-79
2023/03/27 10:33:49;;;;;;;6.47;1.48;;;;;;;-1.09;83.95;99370.84;10419200;28;20050;-81
2023/03/27 10:39:27;;;;;;;1.00;0.80;;;;;;;-0.91;83.01;99388.72;10425796;28;20037;-79
2023/03/27 10:44:47;;;;;;;3.25;1.00;;;;;;;-0.89;82.53;99373.13;10434702;28;20048;-80
2023/03/27 10:50:11;;;;;;;6.93;1.40;;;;;;;-0.91;82.95;99373.38;10428683;28;20069;-80
2023/03/27 10:55:35;;;;;;;;;;;;;;;-0.89;82.82;99391.16;10410769;28;20037;-80
2023/03/27 11:00:42;;;;;;;1.02;0.70;;;;;;;-0.97;82.13;99389.69;10389624;28;19936;-80
2023/03/27 11:05:47;;;;;;;1.02;0.80;;;;;;;-0.91;81.75;99407.56;10423734;28;20067;-80
2023/03/27 11:11:07;;;;;;;1.58;0.82;;;;;;;-0.92;81.79;99393.28;10437088;28;20057;-80
2023/03/27 11:16:32;;;;;;;1.40;0.95;;;;;;;-0.91;81.40;99418.34;10421380;28;20522;-80
2023/03/27 11:22:18;;;;;;;3.30;1.40;;;;;;;-0.94;81.56;99443.88;10435186;28;20489;-79
2023/03/27 11:27:40;;;;;;;1.95;0.90;;;;;;;-0.92;81.22;99414.00;10405295;28;20037;-79
2023/03/27 11:32:45;;;;;;;2.70;0.60;;;;;;;-0.95;81.58;99431.47;10432863;28;20037;-81
2023/03/27 11:37:58;;;;;;;2.70;1.10;;;;;;;-0.96;81.70;99407.47;10424679;28;20398;-84
2023/03/27 11:43:08;;;;;;;3.35;1.10;;;;;;;-1.03;82.74;99423.75;10414390;28;20046;-80
2023/03/27 11:48:48;;;;;;;2.88;0.90;;;;;;;-1.12;82.32;99430.53;10422958;28;20045;-81
2023/03/27 11:54:16;;;;;;;1.33;0.88;;;;;;;-1.26;83.49;99450.66;10425225;28;20037;-79
2023/03/27 11:59:35;;;;;;;1.02;0.82;;;;;;;-1.24;84.54;99422.44;10438108;28;20051;-80
2023/03/27 12:04:49;;;;;;;2.45;0.90;;;;;;;-1.13;84.75;99415.44;10451527;28;20049;-80
2023/03/27 12:10:15;;;;;;;6.60;1.60;;;;;;;-1.09;84.71;99422.00;10454537;28;20311;-78
2023/03/27 12:16:05;;;;;;;2.45;1.10;;;;;;;-1.02;84.43;99446.13;10460355;28;20405;-78
2023/03/27 12:21:28;;;;;;;4.45;0.93;;;;;;;-1.17;84.01;99427.75;10414869;28;20037;-79
2023/03/27 12:26:47;;;;;;;1.98;1.10;;;;;;;-1.29;84.08;99451.13;10471946;28;20052;-78
2023/03/27 12:32:09;;;;;;;2.78;1.20;;;;;;;-1.38;84.25;99437.22;10454734;28;20044;-79
2023/03/27 12:37:12;;;;;;;2.75;0.73;;;;;;;-1.33;84.38;99434.63;10449320;28;20534;-79
2023/03/27 12:42:42;;;;;;;8.88;0.90;;;;;;;-1.26;83.97;99488.34;10404372;28;20046;-78
2023/03/27 12:48:06;;;;;;;2.92;0.98;;;;;;;-1.28;83.65;99460.84;10444299;28;20045;-79
2023/03/27 12:53:25;;;;;;;8.93;1.35;;;;;;;-1.17;83.99;99460.03;10458104;28;20050;-78
2023/03/27 12:58:33;;;;;;;2.95;1.45;;;;;;;-1.17;84.28;99469.97;10448063;28;20065;-78
2023/03/27 13:04:06;;;;;;;4.40;1.20;;;;;;;-1.20;84.03;99471.28;10441541;28;20037;-78
2023/03/27 13:09:51;;;;;;;1.23;0.80;;;;;;;-1.26;84.19;99472.19;10430009;28;20355;-78
2023/03/27 13:15:05;;;;;;;3.22;1.20;;;;;;;-1.24;83.67;99483.53;10411514;28;20424;-83
2023/03/27 13:20:16;;;;;;;0.80;0.80;;;;;;;-1.31;84.12;99488.22;10454632;28;20045;-79
2023/03/27 13:25:35;;;;;;;2.13;0.85;;;;;;;-1.43;84.40;99492.75;10446359;28;20416;-78
2023/03/27 13:30:43;;;;;;;2.67;1.20;;;;;;;-1.50;84.67;99513.56;10467774;28;20133;-77
2023/03/27 13:36:11;;;;;;;1.05;0.55;;;;;;;-1.49;85.06;99512.53;10443866;28;20033;-78
2023/03/27 13:41:47;;;;;;;1.33;0.95;;;;;;;-1.49;85.17;99502.56;10481754;28;20037;-78
2023/03/27 13:47:19;;;;;;;1.75;1.00;;;;;;;-1.48;85.52;99496.16;10459371;28;20132;-78
2023/03/27 13:52:28;;;;;;;2.25;0.82;;;;;;;-1.54;85.75;99499.75;10446446;28;20049;-77
2023/03/27 13:57:57;;;;;;;1.73;0.93;;;;;;;-1.41;85.61;99490.66;10447200;28;20052;-78
2023/03/27 14:03:18;;;;;;;1.38;1.08;;;;;;;-1.43;85.49;99498.13;10447763;28;20053;-79
2023/03/27 14:08:59;;;;;;;3.15;1.17;;;;;;;-1.57;86.12;99511.78;10428895;28;20057;-78
2023/03/27 14:14:38;;;;;;;1.98;0.90;;;;;;;-1.61;86.39;99550.94;10443379;28;20053;-78
2023/03/27 14:20:14;;;;;;;1.35;1.10;;;;;;;-1.65;86.71;99536.31;10461379;28;20047;-81
2023/03/27 14:25:20;;;;;;;2.42;1.75;;;;;;;-1.60;86.80;99528.38;10423234;28;20044;-86
2023/03/27 14:30:45;;;;;;;1.77;0.90;;;;;;;-1.56;87.12;99516.13;10410295;28;20493;-79
2023/03/27 14:36:22;;;;;;;1.52;0.90;;;;;;;-1.52;86.95;99521.88;10428489;28;20061;-80
2023/03/27 14:41:25;;;;;;;4.97;1.15;;;;;;;-1.54;86.52;99550.88;10451417;28;20520;-80
2023/03/27 14:46:35;;;;;;;2.35;1.00;;;;;;;-1.59;86.90;99553.41;10445715;28;20520;-79
2023/03/27 14:51:46;;;;;;;3.70;1.20;;;;;;;-1.56;87.05;99516.13;10446052;28;20057;-79
2023/03/27 14:57:01;;;;;;;2.08;0.60;;;;;;;-1.53;86.94;99528.31;10446120;28;20045;-80
2023/03/27 15:02:34;;;;;;;2.65;0.90;;;;;;;-1.53;86.92;99539.88;10431849;28;20046;-78
2023/03/27 15:07:41;;;;;;;2.78;1.10;;;;;;;-1.52;87.33;99535.31;10438754;28;20041;-79
2023/03/27 15:12:54;;;;;;;1.92;1.30;;;;;;;-1.48;87.01;99547.25;10439339;28;20041;-80
2023/03/27 15:17:58;;;;;;;1.20;1.10;;;;;;;-1.50;87.63;99551.22;10417876;28;20156;-79
2023/03/27 15:23:28;;;;;;;1.92;1.00;;;;;;;-1.52;87.78;99576.50;10426307;28;20056;-78
2023/03/27 15:29:16;;;;;;;1.20;1.10;;;;;;;-1.55;88.64;99570.75;10418009;28;20053;-79
2023/03/27 15:34:58;;;;;;;3.58;1.10;;;;;;;-1.60;89.47;99568.72;10441240;28;20049;-80
2023/03/27 15:40:41;;;;;;;1.10;1.00;;;;;;;-1.64;90.08;99586.38;10452412;28;20528;-81
2023/03/27 15:45:53;;;;;;;1.13;1.02;;;;;;;-1.72;90.58;99557.13;10431607;28;20045;-81
2023/03/27 15:51:00;;;;;;;0.95;0.95;;;;;;;-1.73;91.25;99568.94;10452267;28;20060;-79
2023/03/27 15:56:05;;;;;;;1.30;0.80;;;;;;;-1.82;91.14;99583.72;10417426;28;20045;-80
2023/03/27 16:01:07;;;;;;;1.77;1.20;;;;;;;-1.86;90.87;99585.22;10450670;28;20043;-77
2023/03/27 16:06:20;;;;;;;1.25;0.80;;;;;;;-1.90;90.75;99584.88;10475598;28;20037;-78
2023/03/27 16:11:44;;;;;;;0.93;0.90;;;;;;;-1.79;90.80;99610.16;10451613;28;20516;-78
2023/03/27 16:22:56;;;;;;;1.92;1.25;;;;;;;-1.86;90.10;99617.50;10442955;28;20056;-79
2023/03/27 16:27:58;;;;;;;1.67;1.30;;;;;;;-1.90;90.52;99635.13;10442390;28;20041;-79
2023/03/27 16:33:02;;;;;;;0.93;0.90;;;;;;;-1.93;90.27;99640.94;10422894;28;20073;-81
2023/03/27 16:38:04;;;;;;;2.45;1.00;;;;;;;-1.94;90.46;99650.03;10426938;28;20049;-80
2023/03/27 16:43:06;;;;;;;2.60;1.10;;;;;;;-1.96;90.82;99658.34;10442886;28;20420;-82
2023/03/27 16:48:09;;;;;;;0.70;0.70;;;;;;;-1.95;90.73;99651.91;10447851;28;20048;-84
2023/03/27 16:53:15;;;;;;;1.92;1.05;;;;;;;-1.96;90.42;99728.22;10412227;28;20068;-83
2023/03/27 16:58:17;;;;;;;0.70;0.70;;;;;;;-1.96;90.66;99665.56;10413771;28;20037;-82
2023/03/27 17:03:19;;;;;;;1.38;0.90;;;;;;;-1.96;90.62;99671.78;10396004;28;20500;-83
2023/03/27 17:08:22;;;;;;;1.60;0.85;;;;;;;-1.94;90.74;99679.63;10404114;28;20440;-83
2023/03/27 17:13:25;;;;;;;1.45;0.70;;;;;;;-1.93;91.01;99675.88;10409620;28;20420;-81
2023/03/27 17:18:27;;;;;;;0.80;0.73;;;;;;;-1.94;91.06;99696.56;10430350;28;20052;-80
2023/03/27 17:23:30;;;;;;;0.70;0.70;;;;;;;-1.93;91.49;99694.69;10431580;28;20132;-79
2023/03/27 17:28:32;;;;;;;1.08;0.80;;;;;;;-1.95;91.68;99704.84;10450306;28;20038;-81
2023/03/27 17:33:35;;;;;;;0.98;0.82;;;;;;;-1.94;92.44;99707.31;10441763;28;20041;-80
2023/03/27 17:38:38;;;;;;;0.70;0.70;;;;;;;-1.95;92.92;99720.97;10424787;28;20075;-79
2023/03/27 17:43:40;;;;;;;1.92;0.88;;;;;;;-1.95;93.44;99721.81;10436936;28;20033;-83
2023/03/27 17:48:42;;;;;;;1.02;0.90;;;;;;;-1.93;93.25;99730.47;10433278;28;20050;-79
2023/03/27 17:53:45;;;;;;;1.10;1.00;;;;;;;-1.90;93.52;99748.03;10422715;28;20053;-79
2023/03/27 17:58:49;;;;;;;1.10;0.90;;;;;;;-1.92;93.80;99739.34;10443029;28;20041;-79
2023/03/27 18:03:53;;;;;;;5.30;0.98;;;;;;;-1.93;94.21;99751.16;10430063;28;20049;-78
2023/03/27 18:08:56;;;;;;;0.80;0.80;;;;;;;-1.94;94.71;99760.25;10427282;28;20053;-78
2023/03/27 18:13:58;;;;;;;1.13;1.02;;;;;;;-1.97;94.93;99764.22;10414871;28;20041;-78
2023/03/27 18:19:00;;;;;;;1.10;0.80;;;;;;;-1.96;95.03;99773.09;10430345;28;20037;-83
2023/03/27 18:24:02;;;;;;;1.35;1.08;;;;;;;-1.99;95.07;99778.94;10417127;28;20045;-79
2023/03/27 18:29:05;;;;;;;1.77;1.02;;;;;;;-1.97;95.68;99771.47;10452168;28;20421;-78
2023/03/27 18:34:08;;;;;;;0.95;0.85;;;;;;;-1.99;96.42;99782.44;10448447;28;20497;-78
2023/03/27 18:39:10;;;;;;;1.42;0.80;;;;;;;-1.99;95.85;99787.00;10452639;28;20045;-78
2023/03/27 18:44:12;;;;;;;0.80;0.80;;;;;;;-2.01;96.98;99795.28;10446757;28;20045;-81
2023/03/27 18:49:16;;;;;;;2.25;0.95;;;;;;;-2.03;97.00;99801.94;10445593;28;20136;-79
2023/03/27 18:54:18;;;;;;;1.27;0.80;;;;;;;-2.03;96.83;99800.06;10421894;28;20246;-78
2023/03/27 18:59:21;;;;;;;0.90;0.70;;;;;;;-2.04;97.10;99817.22;10424260;28;20736;-78
2023/03/27 19:04:23;;;;;;;1.05;0.80;;;;;;;-2.03;97.45;99815.38;10422848;28;20041;-81
2023/03/27 19:09:28;;;;;;;0.95;0.80;;;;;;;-2.03;97.39;99802.75;10440759;28;20041;-81
2023/03/27 19:14:30;;;;;;;0.70;0.70;;;;;;;-2.01;97.44;99813.28;10434390;28;20049;-78
2023/03/27 19:19:53;;;;;;;0.90;0.80;;;;;;;-2.00;97.61;99828.38;10454510;28;20057;-79
2023/03/27 19:25:09;;;;;;;1.15;0.80;;;;;;;-1.96;97.70;99834.94;10425203;28;20053;-78
2023/03/27 19:30:17;;;;;;;2.35;1.02;;;;;;;-1.94;97.81;99840.91;10407564;28;20512;-80
2023/03/27 19:35:19;;;;;;;3.78;1.00;;;;;;;-1.92;97.48;99847.72;10446937;28;20037;-80
2023/03/27 19:40:21;;;;;;;0.93;0.90;;;;;;;-1.94;98.02;99865.13;10405281;28;20045;-79
2023/03/27 19:45:25;;;;;;;1.50;0.90;;;;;;;-1.96;97.79;99853.75;10435342;28;20052;-78
2023/03/27 19:50:27;;;;;;;0.32;0.32;;;;;;;-1.97;98.18;99850.25;10415687;28;20064;-79
2023/03/27 19:55:43;;;;;;;1.58;0.90;;;;;;;-2.00;97.80;99868.69;10444021;28;20398;-79
2023/03/27 20:00:49;;;;;;;2.63;0.90;;;;;;;-2.02;97.62;99865.41;10427221;28;20056;-77
2023/03/27 20:06:00;;;;;;;0.90;0.80;;;;;;;-2.00;97.74;99868.69;10443849;28;20478;-79
2023/03/27 20:11:03;;;;;;;2.60;1.00;;;;;;;-1.97;97.95;99884.38;10429256;28;20521;-80
2023/03/27 20:16:06;;;;;;;1.08;0.93;;;;;;;-1.98;97.95;99880.88;10444696;28;20040;-81
2023/03/27 20:21:12;;;;;;;0.90;0.90;;;;;;;-1.97;97.73;99887.06;10440990;28;20445;-80
2023/03/27 20:26:14;;;;;;;1.48;0.95;;;;;;;-1.98;98.06;99899.69;10396872;28;20072;-80
2023/03/27 20:31:22;;;;;;;1.30;0.90;;;;;;;-1.97;97.82;99901.31;10431012;28;20057;-81
2023/03/27 20:36:25;;;;;;;0.73;0.65;;;;;;;-1.98;97.99;99899.69;10456318;28;20036;-79
2023/03/27 20:41:37;;;;;;;0.95;0.70;;;;;;;-1.96;98.17;99907.53;10441484;28;20041;-79
2023/03/27 20:46:57;;;;;;;1.02;0.90;;;;;;;-1.96;97.63;99908.34;10437787;28;20048;-78
2023/03/27 20:52:02;;;;;;;1.02;0.90;;;;;;;-1.97;97.69;99913.94;10459534;28;20056;-79
2023/03/27 20:57:04;;;;;;;0.90;0.90;;;;;;;-1.98;97.20;99915.00;10419383;28;20068;-79
2023/03/27 21:02:12;;;;;;;1.27;0.90;;;;;;;-1.99;97.97;99916.03;10450546;28;20041;-80
2023/03/27 21:07:15;;;;;;;1.15;0.70;;;;;;;-1.98;97.69;99912.31;10444754;28;20068;-80
2023/03/27 21:12:20;;;;;;;0.90;0.70;;;;;;;-1.98;97.73;99915.00;10432368;28;20041;-80
2023/03/27 21:17:22;;;;;;;1.98;0.88;;;;;;;-2.02;97.40;99903.03;10402390;28;20048;-79
2023/03/27 21:22:24;;;;;;;1.08;0.68;;;;;;;-2.05;97.79;99906.97;10429863;28;20048;-80
2023/03/27 21:27:26;;;;;;;1.17;0.80;;;;;;;-2.02;97.34;99916.47;10463221;28;20041;-79
2023/03/27 21:32:28;;;;;;;1.27;1.00;;;;;;;-2.03;96.97;99898.69;10446908;28;20048;-79
2023/03/27 21:37:31;;;;;;;0.90;0.90;;;;;;;-2.03;97.21;99902.22;10426651;28;20042;-79
2023/03/27 21:42:33;;;;;;;1.10;0.90;;;;;;;-2.03;97.26;99904.06;10447256;28;20127;-79
2023/03/27 21:47:35;;;;;;;0.52;0.52;;;;;;;-2.05;97.27;99912.34;10447328;28;20493;-79
2023/03/27 21:52:37;;;;;;;1.30;1.08;;;;;;;-2.01;97.30;99910.06;10448600;28;20057;-78
2023/03/27 21:57:39;;;;;;;2.22;0.90;;;;;;;-2.00;96.82;99923.28;10448267;28;20414;-80
2023/03/27 22:02:42;;;;;;;0.80;0.80;;;;;;;-2.03;97.17;99923.72;10447431;28;20048;-79
2023/03/27 22:07:47;;;;;;;1.13;0.70;;;;;;;-2.01;97.22;99932.38;10449219;28;20041;-79
2023/03/27 22:12:49;;;;;;;0.80;0.80;;;;;;;-2.01;97.04;99939.63;10447303;28;20037;-79
2023/03/27 22:17:51;;;;;;;1.85;0.90;;;;;;;-2.02;97.10;99932.59;10447603;28;20041;-79
2023/03/27 22:22:56;;;;;;;0.90;0.80;;;;;;;-2.00;96.83;99938.59;10449939;28;20068;-77
2023/03/27 22:27:59;;;;;;;0.80;0.80;;;;;;;-2.02;97.33;99930.75;10442626;28;20045;-79
2023/03/27 22:33:02;;;;;;;0.85;0.77;;;;;;;-1.98;96.92;99939.19;10411664;28;20048;-79
2023/03/27 22:38:04;;;;;;;0.73;0.68;;;;;;;-1.99;97.18;99950.97;10443220;28;20057;-79
2023/03/27 22:43:06;;;;;;;0.70;0.70;;;;;;;-2.01;97.61;99950.38;10427357;28;20033;-79
2023/03/27 22:48:08;;;;;;;0.80;0.80;;;;;;;-2.05;97.07;99971.50;10441701;28;20041;-79
2023/03/27 22:53:11;;;;;;;1.30;1.00;;;;;;;-2.06;97.15;99958.28;10444957;28;20041;-78
2023/03/27 22:58:13;;;;;;;0.88;0.80;;;;;;;-2.07;97.01;99959.31;10443831;28;20541;-80
2023/03/27 23:03:21;;;;;;;1.00;0.75;;;;;;;-2.08;97.06;99961.19;10422620;28;20044;-79
2023/03/27 23:08:26;;;;;;;;;;;;;;;-2.06;97.60;99961.78;10443484;28;20045;-79
2023/03/27 23:13:30;;;;;;;0.73;0.73;;;;;;;-2.04;97.47;99962.38;10426910;28;19936;-79
2023/03/27 23:18:32;;;;;;;0.85;0.80;;;;;;;-2.01;97.45;99969.19;10443331;28;20501;-78
2023/03/27 23:23:39;;;;;;;0.98;0.88;;;;;;;-1.99;97.60;99988.63;10426361;28;20045;-79
2023/03/27 23:28:41;;;;;;;1.33;0.95;;;;;;;-1.94;97.58;99992.31;10415368;28;20493;-79
2023/03/27 23:33:45;;;;;;;1.42;0.80;;;;;;;-1.89;97.20;99994.38;10453311;28;20045;-78
2023/03/27 23:38:48;;;;;;;2.40;1.38;;;;;;;-1.86;97.27;100004.69;10437834;28;20037;-78
2023/03/27 23:43:52;;;;;;;2.60;0.95;;;;;;;-1.83;97.43;99996.19;10436601;28;20048;-78
2023/03/27 23:48:55;;;;;;;1.30;1.10;;;;;;;-1.78;97.56;99998.22;10441487;28;20555;-78
2023/03/27 23:53:57;;;;;;;1.40;1.20;;;;;;;-1.74;97.37;100015.56;10441416;28;20045;-79
2023/03/27 23:59:00;;;;;;;1.73;1.20;;;;;;;-1.72;97.47;100006.25;10441798;28;20060;-78
